Time;durP1;ratioP1;P1;durP2;ratioP2;P2;SDS_P1;SDS_P2;PMS_P1;PMS_P2;Temp;Humidity;BMP_temperature;BMP_pressure;BME280_temperature;BME280_humidity;BME280_pressure;Samples;Min_cycle;Max_cycle;Signal;HPM_P1;HPM_P2
2021/03/18 00:00:00;;;;;;;18.42;15.15;;;2.20;99.90;;;;;;5073863;28;20305;-84
2021/03/18 00:02:27;;;;;;;20.50;13.88;;;2.10;99.90;;;;;;5074486;28;20735;-82
2021/03/18 00:04:53;;;;;;;17.50;14.30;;;2.10;99.90;;;;;;5072118;28;20248;-81
2021/03/18 00:07:19;;;;;;;21.23;14.32;;;2.10;99.90;;;;;;5073944;28;20404;-83
2021/03/18 00:09:46;;;;;;;24.02;15.55;;;2.20;99.90;;;;;;5072784;28;20240;-82
2021/03/18 00:12:13;;;;;;;21.25;14.95;;;2.20;99.90;;;;;;5073617;28;20201;-82
2021/03/18 00:14:40;;;;;;;21.70;16.55;;;2.10;99.90;;;;;;5026830;28;20286;-81
2021/03/18 00:17:06;;;;;;;20.83;15.75;;;2.10;99.90;;;;;;5031531;28;20294;-83
2021/03/18 00:19:33;;;;;;;18.17;15.25;;;2.10;99.90;;;;;;5029946;28;20352;-80
2021/03/18 00:22:02;;;;;;;26.10;17.05;;;2.10;99.90;;;;;;5030467;28;20301;-83
2021/03/18 00:24:29;;;;;;;19.58;15.00;;;2.10;99.90;;;;;;5031387;28;20207;-83
2021/03/18 00:26:55;;;;;;;18.30;15.70;;;2.10;99.90;;;;;;5030239;28;20294;-83
2021/03/18 00:29:22;;;;;;;17.27;15.45;;;2.20;99.90;;;;;;5031301;28;20317;-82
2021/03/18 00:31:49;;;;;;;18.58;15.00;;;2.20;99.90;;;;;;5027121;28;20678;-81
2021/03/18 00:34:15;;;;;;;20.95;16.55;;;2.20;99.90;;;;;;5072502;28;20236;-82
2021/03/18 00:36:42;;;;;;;25.48;17.02;;;2.20;99.90;;;;;;5072420;28;20269;-84
2021/03/18 00:39:09;;;;;;;25.92;17.83;;;2.30;99.90;;;;;;5073430;28;20263;-80
2021/03/18 00:41:36;;;;;;;27.42;17.35;;;2.20;99.90;;;;;;5072051;28;20255;-82
2021/03/18 00:44:03;;;;;;;24.05;17.13;;;2.20;99.90;;;;;;5073091;28;20300;-83
2021/03/18 00:46:33;;;;;;;24.55;16.92;;;2.20;99.90;;;;;;5073434;28;20351;-81
2021/03/18 00:49:00;;;;;;;28.98;16.25;;;2.30;99.90;;;;;;5072487;28;20662;-83
2021/03/18 00:51:26;;;;;;;20.63;17.92;;;2.20;99.90;;;;;;5067963;28;20205;-82
2021/03/18 00:53:52;;;;;;;19.73;15.75;;;2.20;99.90;;;;;;5086566;28;20220;-84
2021/03/18 00:56:21;;;;;;;26.33;18.38;;;2.10;99.90;;;;;;5096382;28;20197;-82
2021/03/18 00:58:48;;;;;;;19.98;16.48;;;2.10;99.90;;;;;;5098453;28;20201;-81
2021/03/18 01:01:18;;;;;;;22.45;16.77;;;2.10;99.90;;;;;;5090579;28;20228;-86
2021/03/18 01:03:46;;;;;;;24.70;17.45;;;2.10;99.90;;;;;;5075313;28;20301;-83
2021/03/18 01:06:16;;;;;;;25.75;16.58;;;2.10;99.90;;;;;;5071256;28;20717;-82
2021/03/18 01:08:42;;;;;;;20.90;16.65;;;2.10;99.90;;;;;;5074082;28;20320;-85
2021/03/18 01:11:11;;;;;;;23.08;16.35;;;2.10;99.90;;;;;;5072928;28;20297;-84
2021/03/18 01:13:40;;;;;;;24.83;15.98;;;2.10;99.90;;;;;;5074644;28;20212;-85
2021/03/18 01:16:08;;;;;;;24.83;15.55;;;2.10;99.90;;;;;;5037410;28;20631;-84
2021/03/18 01:18:39;;;;;;;21.63;15.50;;;2.10;99.90;;;;;;5073047;28;20256;-86
2021/03/18 01:21:08;;;;;;;22.40;16.38;;;2.10;99.90;;;;;;5073729;28;20202;-85
2021/03/18 01:23:35;;;;;;;28.52;18.67;;;2.10;99.90;;;;;;5071579;28;20209;-85
2021/03/18 01:26:02;;;;;;;116.75;43.60;;;2.10;99.90;;;;;;5072747;28;20288;-86
2021/03/18 01:28:29;;;;;;;28.40;19.08;;;2.20;99.90;;;;;;5071977;28;20665;-84
2021/03/18 01:30:55;;;;;;;25.23;16.50;;;2.20;99.90;;;;;;5034120;28;20220;-90
2021/03/18 01:33:23;;;;;;;23.13;16.95;;;2.20;99.90;;;;;;5073201;28;20296;-90
2021/03/18 01:35:50;;;;;;;24.63;16.88;;;2.10;99.90;;;;;;5073596;28;20292;-86
2021/03/18 01:38:17;;;;;;;19.35;15.23;;;2.10;99.90;;;;;;5072244;28;20289;-88
2021/03/18 01:40:44;;;;;;;22.60;16.00;;;2.10;99.90;;;;;;5074009;28;20232;-87
2021/03/18 01:43:11;;;;;;;19.88;15.25;;;2.10;99.90;;;;;;5074712;28;20296;-89
2021/03/18 01:45:38;;;;;;;16.95;14.57;;;2.00;99.90;;;;;;5073514;28;20248;-89
2021/03/18 01:48:06;;;;;;;19.90;14.95;;;2.00;99.90;;;;;;5074084;28;20316;-88
2021/03/18 01:50:36;;;;;;;19.17;16.10;;;2.00;99.90;;;;;;5090989;28;20206;-87
2021/03/18 01:53:04;;;;;;;17.10;13.43;;;2.00;99.90;;;;;;5073940;28;20212;-87
2021/03/18 01:55:35;;;;;;;21.17;14.15;;;2.00;99.90;;;;;;5076167;28;20228;-87
2021/03/18 01:58:04;;;;;;;16.42;12.80;;;2.10;99.90;;;;;;5076802;28;20230;-85
2021/03/18 02:00:31;;;;;;;16.80;14.57;;;2.20;99.90;;;;;;5091454;28;20233;-85
2021/03/18 02:02:58;;;;;;;21.50;15.13;;;2.10;99.90;;;;;;5075718;28;20237;-88
2021/03/18 02:05:27;;;;;;;16.77;13.55;;;2.20;99.90;;;;;;5074267;28;20229;-86
2021/03/18 02:07:54;;;;;;;22.95;14.48;;;2.30;99.90;;;;;;5073706;28;20229;-85
2021/03/18 02:10:23;;;;;;;16.08;13.55;;;2.20;99.90;;;;;;5072878;28;20726;-88
2021/03/18 02:12:51;;;;;;;17.02;13.75;;;2.20;99.90;;;;;;5077009;28;20239;-87
2021/03/18 02:15:21;;;;;;;21.70;15.27;;;2.20;99.90;;;;;;5075410;28;20344;-87
2021/03/18 02:17:56;;;;;;;22.63;14.63;;;2.30;99.90;;;;;;5075840;28;20289;-86
2021/03/18 02:20:59;;;;;;;16.65;14.32;;;2.30;99.90;;;;;;5074408;28;20205;-88
2021/03/18 02:24:03;;;;;;;18.92;14.63;;;2.20;99.90;;;;;;5075255;28;20233;-85
2021/03/18 02:26:53;;;;;;;15.77;12.13;;;2.20;99.90;;;;;;5075757;28;20237;-86
2021/03/18 02:29:53;;;;;;;14.80;11.60;;;2.20;99.90;;;;;;5052699;28;20293;-86
2021/03/18 02:32:36;;;;;;;16.10;11.25;;;2.20;99.90;;;;;;5032253;28;20213;-85
2021/03/18 02:35:24;;;;;;;14.68;10.32;;;2.20;99.90;;;;;;5073683;28;20288;-87
2021/03/18 02:38:01;;;;;;;12.88;10.75;;;2.20;99.90;;;;;;5073387;28;20205;-86
2021/03/18 02:40:31;;;;;;;11.10;9.90;;;2.30;99.90;;;;;;5072945;28;20627;-84
2021/03/18 02:43:01;;;;;;;19.00;9.85;;;2.30;99.90;;;;;;5075346;28;20681;-85
2021/03/18 02:45:33;;;;;;;11.48;9.63;;;2.10;99.90;;;;;;5075258;28;20241;-85
2021/03/18 02:48:04;;;;;;;11.18;9.05;;;2.10;99.90;;;;;;5075532;28;20252;-90
2021/03/18 02:50:34;;;;;;;13.55;8.55;;;2.20;99.90;;;;;;5073018;28;20209;-85
2021/03/18 02:53:02;;;;;;;10.93;8.43;;;2.30;99.90;;;;;;5074798;28;20687;-85
2021/03/18 02:55:30;;;;;;;10.80;7.80;;;2.20;99.90;;;;;;5074776;28;20216;-86
2021/03/18 02:58:01;;;;;;;7.63;6.82;;;2.10;99.90;;;;;;5074985;28;20321;-89
2021/03/18 03:00:28;;;;;;;10.90;8.85;;;2.20;99.90;;;;;;5074642;28;20202;-88
2021/03/18 03:02:54;;;;;;;13.60;8.30;;;2.20;99.90;;;;;;5052474;28;20297;-87
2021/03/18 03:05:28;;;;;;;11.27;8.48;;;2.20;99.90;;;;;;5051062;28;20312;-87
2021/03/18 03:07:56;;;;;;;7.35;6.63;;;2.10;99.90;;;;;;5053091;28;20259;-84
2021/03/18 03:10:23;;;;;;;8.25;6.80;;;2.20;99.90;;;;;;5050420;28;20285;-88
2021/03/18 03:12:52;;;;;;;10.90;7.00;;;2.20;99.90;;;;;;5052044;28;20293;-87
2021/03/18 03:15:19;;;;;;;7.78;6.75;;;2.10;99.90;;;;;;5036130;28;20728;-87
2021/03/18 03:17:47;;;;;;;12.52;8.75;;;2.10;99.90;;;;;;5052745;28;20784;-88
2021/03/18 03:20:16;;;;;;;8.45;6.78;;;2.20;99.90;;;;;;5055729;28;20206;-92
2021/03/18 03:22:45;;;;;;;10.07;7.05;;;2.20;99.90;;;;;;5076847;28;20197;-90
2021/03/18 03:25:16;;;;;;;8.38;7.20;;;2.10;99.90;;;;;;5076776;28;20296;-87
2021/03/18 03:27:44;;;;;;;11.55;7.88;;;2.10;99.90;;;;;;5089266;28;20194;-88
2021/03/18 03:30:12;;;;;;;11.13;7.38;;;2.10;99.90;;;;;;5097651;28;20194;-87
2021/03/18 03:32:38;;;;;;;8.15;7.32;;;2.20;99.90;;;;;;5098080;28;20186;-86
2021/03/18 03:35:07;;;;;;;9.40;8.40;;;2.30;99.90;;;;;;5090850;28;20206;-86
2021/03/18 03:37:34;;;;;;;10.55;7.15;;;2.20;99.90;;;;;;5076304;28;20289;-87
2021/03/18 03:40:00;;;;;;;10.55;6.78;;;2.10;99.90;;;;;;5075579;28;20245;-85
2021/03/18 03:42:28;;;;;;;9.65;7.25;;;2.10;99.90;;;;;;5074769;28;20237;-89
2021/03/18 03:44:55;;;;;;;9.45;6.45;;;2.10;99.90;;;;;;5074520;28;20297;-91
2021/03/18 03:47:22;;;;;;;6.47;5.88;;;2.20;99.90;;;;;;5073220;28;20239;-91
2021/03/18 03:49:49;;;;;;;6.32;5.60;;;2.20;99.90;;;;;;5073140;28;20320;-88
2021/03/18 03:52:22;;;;;;;10.50;5.22;;;2.20;99.90;;;;;;5073394;28;20201;-87
2021/03/18 03:54:57;;;;;;;7.05;5.75;;;2.20;99.90;;;;;;5074099;28;20209;-85
2021/03/18 03:57:33;;;;;;;10.50;6.10;;;2.30;99.90;;;;;;5073367;28;20236;-85
2021/03/18 04:00:01;;;;;;;6.25;5.65;;;2.30;99.90;;;;;;5073446;28;20205;-87
2021/03/18 04:02:29;;;;;;;7.78;5.63;;;2.30;99.90;;;;;;5074033;28;20669;-86
2021/03/18 04:04:56;;;;;;;6.68;5.75;;;2.30;99.90;;;;;;5073020;28;20205;-86
2021/03/18 04:07:29;;;;;;;8.57;6.20;;;2.20;99.90;;;;;;5074153;28;20274;-87
2021/03/18 04:09:59;;;;;;;9.57;7.30;;;2.10;99.90;;;;;;5073872;28;20316;-87
2021/03/18 04:12:33;;;;;;;8.15;6.93;;;2.10;99.90;;;;;;5072978;28;20290;-87
2021/03/18 04:15:08;;;;;;;12.25;8.57;;;2.10;99.90;;;;;;5073621;28;20296;-86
2021/03/18 04:17:37;;;;;;;14.48;8.50;;;2.20;99.90;;;;;;5072069;28;20261;-84
2021/03/18 04:20:08;;;;;;;9.77;6.10;;;2.30;99.90;;;;;;5072226;28;20308;-85
2021/03/18 04:22:36;;;;;;;11.55;6.38;;;2.30;99.90;;;;;;5073453;28;20310;-86
2021/03/18 04:25:06;;;;;;;9.68;6.57;;;2.30;99.90;;;;;;5073411;28;20293;-89
2021/03/18 04:27:38;;;;;;;10.10;6.38;;;2.20;99.90;;;;;;5074006;28;20205;-88
2021/03/18 04:30:09;;;;;;;6.60;6.03;;;2.20;99.90;;;;;;5073274;28;20688;-87
2021/03/18 04:32:37;;;;;;;13.73;5.55;;;2.20;99.90;;;;;;5072572;28;20296;-87
2021/03/18 04:35:05;;;;;;;5.43;4.53;;;2.20;99.90;;;;;;5073597;28;20212;-88
2021/03/18 04:37:34;;;;;;;10.10;6.22;;;2.20;99.90;;;;;;5073389;28;20233;-87
2021/03/18 04:40:03;;;;;;;6.60;5.43;;;2.20;99.90;;;;;;5072341;28;21021;-87
2021/03/18 04:42:30;;;;;;;6.28;5.18;;;2.10;99.90;;;;;;5073019;28;20246;-86
2021/03/18 04:45:00;;;;;;;9.25;5.95;;;2.10;99.90;;;;;;5070264;28;20293;-87
2021/03/18 04:47:28;;;;;;;5.50;4.85;;;2.30;99.90;;;;;;5071855;28;20288;-85
2021/03/18 04:49:56;;;;;;;11.00;6.60;;;2.40;99.90;;;;;;5065480;28;20229;-88
2021/03/18 04:52:22;;;;;;;6.40;5.57;;;2.40;99.90;;;;;;5071644;28;20201;-87
2021/03/18 04:54:49;;;;;;;6.18;4.28;;;2.30;99.90;;;;;;5073028;28;20255;-87
2021/03/18 04:57:19;;;;;;;7.45;5.57;;;2.40;99.90;;;;;;5072462;28;20320;-87
2021/03/18 04:59:46;;;;;;;8.10;5.40;;;2.30;99.90;;;;;;5072610;28;20247;-88
2021/03/18 05:02:15;;;;;;;7.25;6.10;;;2.30;99.90;;;;;;5072059;28;20297;-87
2021/03/18 05:04:44;;;;;;;7.05;5.85;;;2.20;99.90;;;;;;5071471;28;20288;-87
2021/03/18 05:07:13;;;;;;;6.10;4.88;;;2.20;99.90;;;;;;5054420;28;20291;-88
2021/03/18 05:09:40;;;;;;;9.45;5.65;;;2.20;99.90;;;;;;5072763;28;20320;-88
2021/03/18 05:12:11;;;;;;;7.25;5.18;;;2.10;99.90;;;;;;5072052;28;20205;-89
2021/03/18 05:14:39;;;;;;;8.00;5.68;;;2.10;99.90;;;;;;5070376;28;20202;-89
2021/03/18 05:17:05;;;;;;;6.03;5.43;;;2.20;99.90;;;;;;5071712;28;20576;-88
2021/03/18 05:19:34;;;;;;;5.90;5.10;;;2.10;99.90;;;;;;5071439;28;20284;-88
2021/03/18 05:22:01;;;;;;;7.75;6.40;;;2.10;99.90;;;;;;5071921;28;20292;-86
2021/03/18 05:24:28;;;;;;;8.93;6.18;;;2.10;99.90;;;;;;5072402;28;20286;-88
2021/03/18 05:26:55;;;;;;;10.68;5.95;;;2.10;99.90;;;;;;5072268;28;20288;-87
2021/03/18 05:29:22;;;;;;;6.97;6.28;;;2.10;99.90;;;;;;5053914;28;20320;-88
2021/03/18 05:31:48;;;;;;;5.43;4.93;;;2.10;99.90;;;;;;5072568;28;20344;-88
2021/03/18 05:34:14;;;;;;;5.30;4.75;;;2.10;99.90;;;;;;5071225;28;20248;-90
2021/03/18 05:36:42;;;;;;;6.90;5.35;;;2.10;99.90;;;;;;5072038;28;20294;-87
2021/03/18 05:39:08;;;;;;;9.15;5.60;;;2.10;99.90;;;;;;5072692;28;20244;-87
2021/03/18 05:41:36;;;;;;;12.25;5.78;;;2.10;99.90;;;;;;5073528;28;20232;-89
2021/03/18 05:44:05;;;;;;;12.70;9.82;;;2.10;99.90;;;;;;5075231;28;20661;-87
2021/03/18 05:46:33;;;;;;;9.00;5.95;;;2.20;99.90;;;;;;5075588;28;20205;-84
2021/03/18 05:49:05;;;;;;;7.63;4.75;;;2.30;99.90;;;;;;5074765;28;20224;-86
2021/03/18 05:51:36;;;;;;;6.28;5.07;;;2.40;99.90;;;;;;5055662;28;20295;-88
2021/03/18 05:54:04;;;;;;;4.90;4.40;;;2.40;99.90;;;;;;5076394;28;20649;-86
2021/03/18 05:56:35;;;;;;;6.55;4.72;;;2.30;99.90;;;;;;5077636;28;20336;-86
2021/03/18 05:59:02;;;;;;;6.00;5.50;;;2.20;99.90;;;;;;5078171;28;20201;-85
2021/03/18 06:01:28;;;;;;;4.50;4.10;;;2.20;99.90;;;;;;5093669;28;20221;-85
2021/03/18 06:03:56;;;;;;;8.43;5.25;;;2.30;99.90;;;;;;5096000;28;20206;-85
2021/03/18 06:06:23;;;;;;;5.90;4.28;;;2.40;99.90;;;;;;5080421;28;20299;-85
2021/03/18 06:08:50;;;;;;;8.85;5.60;;;2.60;99.90;;;;;;5079360;28;20290;-85
2021/03/18 06:11:17;;;;;;;5.97;4.80;;;2.60;99.90;;;;;;5090782;28;20236;-82
2021/03/18 06:13:44;;;;;;;7.40;4.57;;;2.70;99.90;;;;;;5101154;28;20189;-86
2021/03/18 06:16:10;;;;;;;6.60;5.57;;;2.70;99.90;;;;;;5099860;28;20186;-83
2021/03/18 06:18:38;;;;;;;8.40;4.30;;;2.60;99.90;;;;;;5082029;28;20225;-86
2021/03/18 06:21:05;;;;;;;7.70;5.43;;;2.60;99.90;;;;;;5078413;28;20255;-87
2021/03/18 06:23:34;;;;;;;6.32;5.30;;;2.60;99.90;;;;;;5074433;28;20709;-87
2021/03/18 06:26:00;;;;;;;7.40;6.30;;;2.60;99.90;;;;;;5074376;28;20237;-85
2021/03/18 06:28:31;;;;;;;5.25;4.85;;;2.70;99.90;;;;;;5072683;28;20343;-88
2021/03/18 06:31:03;;;;;;;6.75;5.78;;;2.70;99.90;;;;;;5072880;28;20229;-86
2021/03/18 06:33:32;;;;;;;10.75;4.65;;;2.80;99.90;;;;;;5073534;28;20209;-88
2021/03/18 06:35:59;;;;;;;7.50;4.35;;;2.80;99.90;;;;;;5075598;28;20205;-88
2021/03/18 06:38:28;;;;;;;5.70;5.10;;;2.90;99.90;;;;;;5075493;28;20300;-87
2021/03/18 06:40:55;;;;;;;6.25;3.90;;;2.90;99.90;;;;;;5076291;28;20819;-91
2021/03/18 06:43:36;;;;;;;8.13;4.43;;;3.00;99.90;;;;;;5075812;28;20242;-90
2021/03/18 06:46:14;;;;;;;5.45;4.35;;;3.20;99.90;;;;;;5054974;28;20245;-87
2021/03/18 06:48:41;;;;;;;6.80;4.22;;;3.20;99.90;;;;;;5053360;28;20313;-86
2021/03/18 06:51:21;;;;;;;7.00;3.50;;;3.40;99.90;;;;;;5055855;28;20289;-89
2021/03/18 06:53:48;;;;;;;9.98;4.88;;;3.50;99.90;;;;;;5064446;28;20238;-88
2021/03/18 06:56:32;;;;;;;8.35;4.25;;;3.40;99.90;;;;;;5073266;28;20205;-85
2021/03/18 06:59:00;;;;;;;5.78;4.90;;;3.40;99.90;;;;;;5075464;28;20252;-85
2021/03/18 07:01:30;;;;;;;6.13;4.10;;;3.70;99.90;;;;;;5074653;28;20288;-87
2021/03/18 07:04:05;;;;;;;7.95;5.68;;;3.80;99.90;;;;;;5074056;28;20201;-85
2021/03/18 07:06:34;;;;;;;4.30;3.45;;;3.80;99.90;;;;;;5073061;28;20291;-85
2021/03/18 07:09:13;;;;;;;4.03;3.42;;;3.80;99.90;;;;;;5074789;28;20316;-85
2021/03/18 07:11:42;;;;;;;5.78;3.35;;;3.60;99.90;;;;;;5074279;28;20213;-83
2021/03/18 07:14:11;;;;;;;4.57;4.13;;;3.70;99.90;;;;;;5073766;28;20248;-84
2021/03/18 07:16:44;;;;;;;5.63;4.40;;;3.80;99.90;;;;;;5074815;28;20293;-83
2021/03/18 07:19:21;;;;;;;5.15;3.90;;;3.80;99.90;;;;;;5073525;28;20233;-85
2021/03/18 07:21:48;;;;;;;5.95;3.88;;;3.80;99.90;;;;;;5074626;28;20704;-83
2021/03/18 07:24:29;;;;;;;4.97;3.55;;;4.10;99.90;;;;;;5074645;28;20208;-89
2021/03/18 07:26:57;;;;;;;5.45;4.10;;;4.20;99.90;;;;;;5074798;28;20213;-86
2021/03/18 07:29:28;;;;;;;5.05;3.65;;;4.30;99.90;;;;;;5075220;28;20248;-87
2021/03/18 07:31:57;;;;;;;4.80;3.70;;;4.20;99.90;;;;;;5074061;28;20296;-81
2021/03/18 07:34:25;;;;;;;3.80;3.50;;;3.90;99.90;;;;;;5073071;28;20627;-84
2021/03/18 07:36:56;;;;;;;13.70;4.93;;;4.10;99.90;;;;;;5075541;28;20205;-85
2021/03/18 07:39:23;;;;;;;5.95;3.72;;;4.00;99.90;;;;;;5074554;28;20217;-86
2021/03/18 07:41:50;;;;;;;11.93;4.40;;;4.00;99.90;;;;;;5074709;28;20301;-87
2021/03/18 07:44:16;;;;;;;5.18;4.05;;;3.80;99.90;;;;;;5074393;28;20351;-86
2021/03/18 07:46:46;;;;;;;4.88;3.85;;;3.80;99.90;;;;;;5074377;28;20292;-88
2021/03/18 07:49:15;;;;;;;5.50;4.18;;;3.80;99.90;;;;;;5071844;28;20317;-84
2021/03/18 07:51:44;;;;;;;4.57;4.15;;;3.80;99.90;;;;;;5074629;28;20551;-86
2021/03/18 07:54:14;;;;;;;4.65;3.72;;;3.90;99.90;;;;;;5074948;28;20283;-90
2021/03/18 07:56:45;;;;;;;6.20;3.60;;;3.90;99.90;;;;;;5074103;28;20225;-88
2021/03/18 07:59:12;;;;;;;6.00;3.78;;;3.80;99.90;;;;;;5074631;28;20201;-90
2021/03/18 08:01:40;;;;;;;4.18;3.35;;;3.80;99.90;;;;;;5074859;28;20279;-90
2021/03/18 08:04:10;;;;;;;6.43;4.45;;;3.50;99.90;;;;;;5073624;28;20237;-91
2021/03/18 08:06:48;;;;;;;7.25;4.47;;;3.60;99.90;;;;;;5074423;28;20285;-90
2021/03/18 08:09:20;;;;;;;5.75;4.25;;;3.50;99.90;;;;;;5073030;28;20719;-91
2021/03/18 08:11:47;;;;;;;7.35;4.30;;;3.50;99.90;;;;;;5074389;28;20189;-87
2021/03/18 08:14:16;;;;;;;4.38;3.83;;;3.60;99.90;;;;;;5075536;28;20273;-87
2021/03/18 08:16:42;;;;;;;6.07;4.00;;;3.90;99.90;;;;;;5075012;28;20292;-89
2021/03/18 08:19:11;;;;;;;6.28;4.55;;;4.10;99.90;;;;;;5072770;28;20296;-87
2021/03/18 08:21:42;;;;;;;5.95;4.63;;;4.20;99.90;;;;;;5080629;28;20225;-83
2021/03/18 08:24:09;;;;;;;9.00;4.20;;;3.90;99.90;;;;;;5073549;28;20434;-83
2021/03/18 08:26:44;;;;;;;7.13;5.13;;;4.00;99.90;;;;;;5073249;28;20209;-83
2021/03/18 08:29:14;;;;;;;6.38;5.45;;;4.20;99.90;;;;;;5073062;28;20238;-84
2021/03/18 08:32:01;;;;;;;8.23;5.93;;;4.40;99.90;;;;;;5073470;28;20209;-87
2021/03/18 08:34:47;;;;;;;6.15;4.78;;;4.70;99.90;;;;;;5071805;28;20286;-92
2021/03/18 08:37:15;;;;;;;6.22;5.43;;;5.20;99.90;;;;;;5073250;28;20249;-89
2021/03/18 08:39:47;;;;;;;8.52;5.05;;;5.40;99.90;;;;;;5073484;28;20338;-85
2021/03/18 08:42:35;;;;;;;7.85;4.80;;;5.60;99.90;;;;;;5073213;28;20274;-87
2021/03/18 08:45:07;;;;;;;6.50;4.82;;;5.70;99.90;;;;;;5072824;28;20198;-83
2021/03/18 08:47:38;;;;;;;6.20;5.32;;;5.30;99.90;;;;;;5072591;28;20235;-83
2021/03/18 08:50:08;;;;;;;9.00;5.05;;;5.30;99.90;;;;;;5067710;28;20261;-83
2021/03/18 08:52:42;;;;;;;4.82;3.92;;;5.50;99.90;;;;;;5074156;28;20241;-84
2021/03/18 08:55:12;;;;;;;6.85;5.20;;;5.50;99.90;;;;;;5073543;28;20200;-83
2021/03/18 08:57:39;;;;;;;5.97;4.50;;;5.40;99.90;;;;;;5072056;28;20567;-82
2021/03/18 09:00:14;;;;;;;8.32;6.13;;;5.20;99.90;;;;;;5073013;28;20632;-85
2021/03/18 09:02:41;;;;;;;5.60;5.00;;;5.50;99.90;;;;;;5072115;28;20618;-83
2021/03/18 09:05:12;;;;;;;6.00;5.38;;;5.60;99.90;;;;;;5071775;28;20201;-82
2021/03/18 09:07:40;;;;;;;7.10;5.50;;;5.80;99.90;;;;;;5072267;28;20288;-83
2021/03/18 09:10:10;;;;;;;7.75;5.10;;;5.50;99.90;;;;;;5072570;28;20668;-83
2021/03/18 09:12:48;;;;;;;5.82;5.13;;;5.90;99.90;;;;;;5054049;28;20289;-82
2021/03/18 09:15:28;;;;;;;6.32;5.53;;;6.00;99.90;;;;;;5072799;28;20293;-83
2021/03/18 09:17:59;;;;;;;6.07;4.75;;;6.00;99.90;;;;;;5071603;28;20580;-84
2021/03/18 09:20:29;;;;;;;8.85;5.28;;;5.90;99.90;;;;;;5050956;28;20233;-84
2021/03/18 09:23:08;;;;;;;7.38;5.10;;;5.70;99.90;;;;;;5052587;28;20206;-87
2021/03/18 09:25:35;;;;;;;7.60;4.80;;;5.80;99.90;;;;;;4978212;28;20202;-86
2021/03/18 09:28:04;;;;;;;6.05;4.55;;;5.90;99.90;;;;;;5008020;28;20258;-85
2021/03/18 09:30:32;;;;;;;5.65;4.80;;;5.60;99.90;;;;;;5010576;28;20262;-84
2021/03/18 09:32:59;;;;;;;12.55;5.72;;;5.50;99.90;;;;;;5010823;28;20294;-87
2021/03/18 09:35:28;;;;;;;7.20;5.68;;;5.50;99.90;;;;;;5009273;28;20677;-83
2021/03/18 09:37:56;;;;;;;6.13;4.90;;;5.30;99.90;;;;;;5010590;28;20210;-82
2021/03/18 09:40:36;;;;;;;5.72;5.07;;;5.30;99.90;;;;;;5010809;28;20298;-89
2021/03/18 09:43:04;;;;;;;6.45;5.30;;;5.50;99.90;;;;;;5020844;28;20201;-85
2021/03/18 09:45:31;;;;;;;15.80;5.13;;;6.00;99.90;;;;;;5052389;28;20224;-85
2021/03/18 09:47:58;;;;;;;8.85;4.88;;;6.00;99.90;;;;;;5052392;28;20309;-85
2021/03/18 09:50:28;;;;;;;6.57;5.25;;;6.20;99.90;;;;;;5069795;28;20236;-88
2021/03/18 09:53:10;;;;;;;6.78;5.05;;;6.40;99.90;;;;;;5072374;28;20240;-85
2021/03/18 09:55:37;;;;;;;7.05;5.18;;;6.60;99.90;;;;;;5054676;28;20202;-84
2021/03/18 09:58:12;;;;;;;6.07;5.47;;;7.00;98.60;;;;;;5072596;28;20272;-84
2021/03/18 10:00:39;;;;;;;6.70;5.40;;;6.90;97.80;;;;;;5072955;28;20559;-88
2021/03/18 10:03:07;;;;;;;5.28;3.90;;;6.60;98.40;;;;;;5050322;28;20233;-84
2021/03/18 10:05:34;;;;;;;5.53;5.00;;;6.50;99.00;;;;;;5051033;28;20300;-87
2021/03/18 10:08:02;;;;;;;8.20;5.07;;;6.40;98.80;;;;;;5056334;28;20221;-87
2021/03/18 10:10:29;;;;;;;5.70;5.18;;;6.00;98.90;;;;;;5066790;28;20233;-81
2021/03/18 10:12:56;;;;;;;6.20;4.60;;;5.90;99.90;;;;;;5048940;28;20210;-86
2021/03/18 10:15:23;;;;;;;6.28;4.28;;;6.20;98.50;;;;;;5052754;28;20242;-85
2021/03/18 10:17:50;;;;;;;5.75;4.28;;;6.30;97.90;;;;;;5064549;28;20233;-84
2021/03/18 10:20:19;;;;;;;4.18;3.20;;;6.50;95.80;;;;;;5070133;28;20206;-81
2021/03/18 10:22:58;;;;;;;3.80;3.40;;;6.50;95.90;;;;;;5090768;28;20825;-85
2021/03/18 10:25:27;;;;;;;5.10;3.22;;;6.40;96.40;;;;;;5073396;28;20576;-84
2021/03/18 10:28:00;;;;;;;4.68;4.13;;;6.60;96.80;;;;;;5074158;28;20201;-88
2021/03/18 10:30:28;;;;;;;3.85;3.45;;;6.80;97.50;;;;;;5075586;28;20319;-87
2021/03/18 10:33:06;;;;;;;4.97;3.90;;;7.40;96.20;;;;;;5076689;28;20284;-89
2021/03/18 10:35:34;;;;;;;4.20;3.50;;;7.60;94.80;;;;;;5074607;28;20289;-85
2021/03/18 10:38:02;;;;;;;4.43;3.15;;;7.70;92.80;;;;;;5074800;28;20241;-85
2021/03/18 10:40:30;;;;;;;5.73;4.20;;;7.70;92.90;;;;;;5057153;28;20304;-85
2021/03/18 10:42:59;;;;;;;6.07;4.27;;;7.80;94.10;;;;;;5075696;28;20456;-87
2021/03/18 10:45:30;;;;;;;6.40;4.13;;;8.40;93.50;;;;;;5075671;28;20526;-87
2021/03/18 10:47:59;;;;;;;5.23;4.03;;;8.60;93.70;;;;;;5075672;28;20487;-85
2021/03/18 10:50:28;;;;;;;5.20;3.37;;;8.90;93.80;;;;;;5072980;28;20601;-83
2021/03/18 10:52:58;;;;;;;4.30;3.83;;;8.80;92.70;;;;;;5075303;28;20447;-85
2021/03/18 10:55:38;;;;;;;3.40;3.10;;;8.90;92.80;;;;;;5075739;28;20861;-84
2021/03/18 10:58:07;;;;;;;4.97;3.20;;;9.10;92.20;;;;;;5074119;28;20483;-83
2021/03/18 11:00:37;;;;;;;4.23;3.07;;;8.90;91.40;;;;;;5075247;28;20444;-82
2021/03/18 11:03:06;;;;;;;4.00;3.37;;;8.40;90.60;;;;;;5074429;28;20953;-81
2021/03/18 11:05:47;;;;;;;6.90;3.57;;;7.90;91.10;;;;;;5074539;28;20479;-85
2021/03/18 11:08:15;;;;;;;4.07;3.30;;;7.70;91.90;;;;;;5075985;28;20452;-90
2021/03/18 11:10:51;;;;;;;3.33;3.13;;;7.80;91.60;;;;;;5075446;28;20895;-87
2021/03/18 11:13:22;;;;;;;4.18;3.63;;;7.50;92.30;;;;;;5074330;28;20463;-85
2021/03/18 11:15:55;;;;;;;3.97;3.60;;;7.60;92.00;;;;;;5075518;28;20206;-86
2021/03/18 11:18:37;;;;;;;8.10;3.35;;;7.50;92.40;;;;;;5074686;28;20535;-85
2021/03/18 11:21:16;;;;;;;6.20;4.22;;;7.40;92.80;;;;;;5073404;28;20622;-87
2021/03/18 11:23:43;;;;;;;5.35;4.30;;;7.20;94.00;;;;;;5075392;28;20759;-85
2021/03/18 11:26:11;;;;;;;5.00;3.85;;;7.00;95.80;;;;;;5074736;28;20284;-84
2021/03/18 11:28:49;;;;;;;4.65;3.95;;;6.50;95.90;;;;;;5074815;28;20296;-86
2021/03/18 11:31:17;;;;;;;4.22;3.10;;;6.10;96.90;;;;;;5074573;28;20827;-84
2021/03/18 11:33:44;;;;;;;5.88;4.55;;;5.90;97.60;;;;;;5073439;28;20567;-86
2021/03/18 11:36:11;;;;;;;5.75;4.10;;;5.80;98.40;;;;;;5075487;28;20587;-90
2021/03/18 11:38:37;;;;;;;4.15;3.45;;;5.50;98.40;;;;;;5074795;28;20280;-87
2021/03/18 11:41:04;;;;;;;3.70;3.33;;;6.00;98.40;;;;;;5074609;28;20292;-88
2021/03/18 11:43:31;;;;;;;4.03;3.72;;;6.30;97.60;;;;;;5073525;28;20207;-82
2021/03/18 11:45:59;;;;;;;4.35;3.70;;;6.40;96.70;;;;;;5072007;28;20245;-83
2021/03/18 11:48:25;;;;;;;4.90;3.30;;;6.70;96.00;;;;;;5072290;28;20339;-82
2021/03/18 11:50:52;;;;;;;4.47;4.00;;;7.00;94.60;;;;;;5072546;28;20324;-83
2021/03/18 11:53:18;;;;;;;6.43;3.15;;;7.20;94.40;;;;;;5073636;28;20304;-87
2021/03/18 11:55:46;;;;;;;6.47;4.18;;;7.10;94.80;;;;;;5072236;28;20529;-83
2021/03/18 11:58:12;;;;;;;5.47;4.97;;;7.20;94.80;;;;;;5073296;28;20316;-83
2021/03/18 12:00:40;;;;;;;5.53;3.73;;;7.10;94.50;;;;;;5073469;28;20963;-83
2021/03/18 12:03:08;;;;;;;6.20;4.40;;;7.30;94.50;;;;;;5072570;28;20452;-88
2021/03/18 12:05:36;;;;;;;4.57;3.80;;;7.50;93.50;;;;;;5069553;28;20451;-84
2021/03/18 12:08:04;;;;;;;4.50;3.30;;;7.60;92.40;;;;;;5074293;28;20448;-84
2021/03/18 12:10:31;;;;;;;6.17;3.50;;;7.70;92.50;;;;;;5074806;28;20530;-83
2021/03/18 12:12:58;;;;;;;5.70;3.67;;;7.90;91.80;;;;;;5073888;28;20447;-82
2021/03/18 12:15:24;;;;;;;5.30;3.90;;;7.80;93.30;;;;;;5074107;28;20440;-87
2021/03/18 12:17:51;;;;;;;5.30;3.43;;;8.00;93.30;;;;;;5074202;28;20513;-81
2021/03/18 12:20:22;;;;;;;4.37;3.90;;;8.20;93.20;;;;;;5071659;28;20604;-92
2021/03/18 12:22:49;;;;;;;4.47;3.83;;;8.60;94.40;;;;;;5072860;28;20563;-85
2021/03/18 12:25:17;;;;;;;3.67;3.37;;;8.00;92.10;;;;;;5072350;28;20596;-84
2021/03/18 12:27:44;;;;;;;4.97;4.17;;;8.40;92.80;;;;;;5054617;28;20451;-84
2021/03/18 12:30:13;;;;;;;4.07;3.63;;;8.10;93.50;;;;;;5073081;28;21001;-86
2021/03/18 12:32:41;;;;;;;4.00;3.60;;;8.20;93.00;;;;;;5070705;28;20467;-84
2021/03/18 12:35:12;;;;;;;4.97;4.23;;;8.20;93.70;;;;;;5071320;28;20462;-85
2021/03/18 12:37:38;;;;;;;6.00;3.73;;;8.00;93.00;;;;;;5072543;28;20455;-82
2021/03/18 12:40:08;;;;;;;4.50;2.80;;;7.50;93.10;;;;;;5072695;28;20452;-81
2021/03/18 12:42:34;;;;;;;3.80;3.17;;;7.30;92.80;;;;;;5075067;28;20448;-81
2021/03/18 12:45:01;;;;;;;6.83;4.00;;;7.20;93.00;;;;;;5073051;28;20448;-82
2021/03/18 12:47:28;;;;;;;3.97;3.37;;;7.30;92.40;;;;;;5072542;28;20500;-85
2021/03/18 12:49:57;;;;;;;8.80;4.80;;;7.20;92.90;;;;;;5052986;28;20495;-85
2021/03/18 12:52:24;;;;;;;6.90;3.25;;;7.10;92.80;;;;;;5050510;28;20468;-91
2021/03/18 12:54:52;;;;;;;3.40;2.95;;;6.90;92.40;;;;;;5047106;28;20202;-87
2021/03/18 12:57:19;;;;;;;5.30;3.60;;;6.80;92.00;;;;;;5055431;28;20234;-86
2021/03/18 12:59:45;;;;;;;6.38;3.72;;;7.00;92.00;;;;;;5054741;28;20268;-88
2021/03/18 13:02:12;;;;;;;5.78;3.33;;;7.00;93.90;;;;;;5047990;28;20234;-88
2021/03/18 13:04:38;;;;;;;3.65;2.83;;;7.00;94.70;;;;;;5046581;28;20736;-83